sensor_id;sensor_type;location;lat;lon;timestamp;P1;durP1;ratioP1;P2;durP2;ratioP2
17854;SDS011;9053;53.358;6.382;2024-03-29T00:00:36;4.37;;;1.07;;
17854;SDS011;9053;53.358;6.382;2024-03-29T00:03:05;2.50;;;0.90;;
17854;SDS011;9053;53.358;6.382;2024-03-29T00:05:33;2.73;;;1.20;;
17854;SDS011;9053;53.358;6.382;2024-03-29T00:07:59;4.43;;;1.00;;
17854;SDS011;9053;53.358;6.382;2024-03-29T00:10:25;2.60;;;1.10;;
17854;SDS011;9053;53.358;6.382;2024-03-29T00:12:51;3.23;;;1.00;;
17854;SDS011;9053;53.358;6.382;2024-03-29T00:15:19;4.53;;;1.13;;
17854;SDS011;9053;53.358;6.382;2024-03-29T00:17:45;3.00;;;1.00;;
17854;SDS011;9053;53.358;6.382;2024-03-29T00:20:14;2.43;;;1.23;;
17854;SDS011;9053;53.358;6.382;2024-03-29T00:22:41;4.30;;;1.10;;
17854;SDS011;9053;53.358;6.382;2024-03-29T00:25:07;3.37;;;1.20;;
17854;SDS011;9053;53.358;6.382;2024-03-29T00:27:34;4.50;;;1.00;;
17854;SDS011;9053;53.358;6.382;2024-03-29T00:30:00;2.00;;;1.10;;
17854;SDS011;9053;53.358;6.382;2024-03-29T00:32:26;2.50;;;1.03;;
17854;SDS011;9053;53.358;6.382;2024-03-29T00:34:52;4.07;;;1.30;;
17854;SDS011;9053;53.358;6.382;2024-03-29T00:37:21;2.90;;;1.20;;
17854;SDS011;9053;53.358;6.382;2024-03-29T00:39:47;4.13;;;1.20;;
17854;SDS011;9053;53.358;6.382;2024-03-29T00:42:13;3.07;;;1.30;;
17854;SDS011;9053;53.358;6.382;2024-03-29T00:44:39;3.03;;;1.23;;
17854;SDS011;9053;53.358;6.382;2024-03-29T00:47:05;4.47;;;1.13;;
17854;SDS011;9053;53.358;6.382;2024-03-29T00:49:31;3.00;;;1.60;;
17854;SDS011;9053;53.358;6.382;2024-03-29T00:51:58;3.63;;;1.13;;
17854;SDS011;9053;53.358;6.382;2024-03-29T00:54:27;3.90;;;1.33;;
17854;SDS011;9053;53.358;6.382;2024-03-29T00:56:53;3.80;;;1.10;;
17854;SDS011;9053;53.358;6.382;2024-03-29T00:59:19;2.10;;;1.03;;
17854;SDS011;9053;53.358;6.382;2024-03-29T01:01:45;4.77;;;1.23;;
17854;SDS011;9053;53.358;6.382;2024-03-29T01:04:12;3.67;;;1.10;;
17854;SDS011;9053;53.358;6.382;2024-03-29T01:06:38;4.07;;;1.50;;
17854;SDS011;9053;53.358;6.382;2024-03-29T01:09:05;3.70;;;1.10;;
17854;SDS011;9053;53.358;6.382;2024-03-29T01:11:34;3.23;;;1.20;;
17854;SDS011;9053;53.358;6.382;2024-03-29T01:14:00;3.00;;;1.00;;
17854;SDS011;9053;53.358;6.382;2024-03-29T01:16:26;4.27;;;1.23;;
17854;SDS011;9053;53.358;6.382;2024-03-29T01:18:52;4.23;;;1.33;;
17854;SDS011;9053;53.358;6.382;2024-03-29T01:21:18;3.53;;;1.10;;
17854;SDS011;9053;53.358;6.382;2024-03-29T01:23:44;2.77;;;1.20;;
17854;SDS011;9053;53.358;6.382;2024-03-29T01:26:10;4.40;;;1.37;;
17854;SDS011;9053;53.358;6.382;2024-03-29T01:28:39;4.13;;;1.10;;
17854;SDS011;9053;53.358;6.382;2024-03-29T01:31:05;4.47;;;1.20;;
17854;SDS011;9053;53.358;6.382;2024-03-29T01:33:31;4.33;;;1.20;;
17854;SDS011;9053;53.358;6.382;2024-03-29T01:35:58;6.40;;;1.23;;
17854;SDS011;9053;53.358;6.382;2024-03-29T01:38:24;4.50;;;1.20;;
17854;SDS011;9053;53.358;6.382;2024-03-29T01:40:50;4.23;;;1.17;;
17854;SDS011;9053;53.358;6.382;2024-03-29T01:43:16;2.33;;;1.00;;
17854;SDS011;9053;53.358;6.382;2024-03-29T01:45:45;4.27;;;1.20;;
17854;SDS011;9053;53.358;6.382;2024-03-29T01:48:13;3.53;;;1.03;;
17854;SDS011;9053;53.358;6.382;2024-03-29T01:50:39;2.67;;;1.30;;
17854;SDS011;9053;53.358;6.382;2024-03-29T01:53:06;5.20;;;1.20;;
17854;SDS011;9053;53.358;6.382;2024-03-29T01:55:34;3.57;;;1.30;;
17854;SDS011;9053;53.358;6.382;2024-03-29T01:58:00;3.80;;;1.00;;
17854;SDS011;9053;53.358;6.382;2024-03-29T02:00:28;2.67;;;1.07;;
17854;SDS011;9053;53.358;6.382;2024-03-29T02:02:58;3.97;;;1.00;;
17854;SDS011;9053;53.358;6.382;2024-03-29T02:05:25;2.30;;;1.03;;
17854;SDS011;9053;53.358;6.382;2024-03-29T02:07:52;3.50;;;1.10;;
17854;SDS011;9053;53.358;6.382;2024-03-29T02:10:19;4.30;;;1.10;;
17854;SDS011;9053;53.358;6.382;2024-03-29T02:12:46;2.03;;;1.03;;
17854;SDS011;9053;53.358;6.382;2024-03-29T02:15:14;1.77;;;0.93;;
17854;SDS011;9053;53.358;6.382;2024-03-29T02:17:41;3.33;;;1.17;;
17854;SDS011;9053;53.358;6.382;2024-03-29T02:20:10;3.57;;;0.97;;
17854;SDS011;9053;53.358;6.382;2024-03-29T02:22:37;3.47;;;1.20;;
17854;SDS011;9053;53.358;6.382;2024-03-29T02:25:10;3.47;;;1.60;;
17854;SDS011;9053;53.358;6.382;2024-03-29T02:27:37;2.13;;;1.07;;
17854;SDS011;9053;53.358;6.382;2024-03-29T02:30:04;4.27;;;1.23;;
17854;SDS011;9053;53.358;6.382;2024-03-29T02:32:31;5.00;;;1.00;;
17854;SDS011;9053;53.358;6.382;2024-03-29T02:34:57;4.33;;;1.10;;
17854;SDS011;9053;53.358;6.382;2024-03-29T02:37:23;3.33;;;1.20;;
17854;SDS011;9053;53.358;6.382;2024-03-29T02:39:49;2.90;;;1.00;;
17854;SDS011;9053;53.358;6.382;2024-03-29T02:42:18;2.90;;;1.03;;
17854;SDS011;9053;53.358;6.382;2024-03-29T02:44:45;4.17;;;1.00;;
17854;SDS011;9053;53.358;6.382;2024-03-29T02:47:12;4.77;;;1.33;;
17854;SDS011;9053;53.358;6.382;2024-03-29T02:49:38;2.77;;;0.80;;
17854;SDS011;9053;53.358;6.382;2024-03-29T02:52:04;3.53;;;1.13;;
17854;SDS011;9053;53.358;6.382;2024-03-29T02:54:30;3.20;;;1.07;;
17854;SDS011;9053;53.358;6.382;2024-03-29T02:56:56;3.50;;;1.20;;
17854;SDS011;9053;53.358;6.382;2024-03-29T02:59:25;5.10;;;1.47;;
17854;SDS011;9053;53.358;6.382;2024-03-29T03:01:51;2.87;;;1.00;;
17854;SDS011;9053;53.358;6.382;2024-03-29T03:04:17;4.17;;;1.10;;
17854;SDS011;9053;53.358;6.382;2024-03-29T03:06:43;2.30;;;0.90;;
17854;SDS011;9053;53.358;6.382;2024-03-29T03:09:09;3.77;;;1.40;;
17854;SDS011;9053;53.358;6.382;2024-03-29T03:11:50;2.43;;;1.03;;
17854;SDS011;9053;53.358;6.382;2024-03-29T03:14:18;3.17;;;1.00;;
17854;SDS011;9053;53.358;6.382;2024-03-29T03:16:46;4.43;;;1.50;;
17854;SDS011;9053;53.358;6.382;2024-03-29T03:19:12;4.67;;;1.10;;
17854;SDS011;9053;53.358;6.382;2024-03-29T03:21:38;4.73;;;1.20;;
17854;SDS011;9053;53.358;6.382;2024-03-29T03:24:05;3.30;;;1.20;;
17854;SDS011;9053;53.358;6.382;2024-03-29T03:26:31;4.17;;;1.20;;
17854;SDS011;9053;53.358;6.382;2024-03-29T03:28:57;3.13;;;1.20;;
17854;SDS011;9053;53.358;6.382;2024-03-29T03:31:23;4.27;;;1.13;;
17854;SDS011;9053;53.358;6.382;2024-03-29T03:33:52;1.73;;;1.20;;
17854;SDS011;9053;53.358;6.382;2024-03-29T03:36:18;3.50;;;1.27;;
17854;SDS011;9053;53.358;6.382;2024-03-29T03:38:44;4.20;;;1.30;;
17854;SDS011;9053;53.358;6.382;2024-03-29T03:41:10;3.43;;;1.30;;
17854;SDS011;9053;53.358;6.382;2024-03-29T03:43:36;2.03;;;1.30;;
17854;SDS011;9053;53.358;6.382;2024-03-29T03:46:02;2.20;;;1.37;;
17854;SDS011;9053;53.358;6.382;2024-03-29T03:48:29;5.43;;;1.00;;
17854;SDS011;9053;53.358;6.382;2024-03-29T03:50:57;3.93;;;1.07;;
17854;SDS011;9053;53.358;6.382;2024-03-29T03:53:23;3.07;;;1.30;;
17854;SDS011;9053;53.358;6.382;2024-03-29T03:55:50;4.37;;;1.00;;
17854;SDS011;9053;53.358;6.382;2024-03-29T03:58:16;2.17;;;1.00;;
17854;SDS011;9053;53.358;6.382;2024-03-29T04:00:42;3.10;;;1.00;;
17854;SDS011;9053;53.358;6.382;2024-03-29T04:03:08;2.53;;;0.93;;
17854;SDS011;9053;53.358;6.382;2024-03-29T04:05:36;2.43;;;1.00;;
17854;SDS011;9053;53.358;6.382;2024-03-29T04:08:05;6.07;;;1.33;;
17854;SDS011;9053;53.358;6.382;2024-03-29T04:10:32;2.63;;;0.97;;
17854;SDS011;9053;53.358;6.382;2024-03-29T04:13:00;2.10;;;1.07;;
17854;SDS011;9053;53.358;6.382;2024-03-29T04:15:26;3.80;;;1.30;;
17854;SDS011;9053;53.358;6.382;2024-03-29T04:17:53;2.33;;;1.00;;
17854;SDS011;9053;53.358;6.382;2024-03-29T04:20:19;2.53;;;0.93;;
17854;SDS011;9053;53.358;6.382;2024-03-29T04:22:45;1.97;;;0.93;;
17854;SDS011;9053;53.358;6.382;2024-03-29T04:25:13;2.90;;;1.10;;
17854;SDS011;9053;53.358;6.382;2024-03-29T04:27:40;2.60;;;1.17;;
17854;SDS011;9053;53.358;6.382;2024-03-29T04:30:07;4.10;;;1.23;;
17854;SDS011;9053;53.358;6.382;2024-03-29T04:32:33;3.17;;;1.10;;
17854;SDS011;9053;53.358;6.382;2024-03-29T04:34:59;3.77;;;1.20;;
17854;SDS011;9053;53.358;6.382;2024-03-29T04:37:25;2.83;;;1.03;;
17854;SDS011;9053;53.358;6.382;2024-03-29T04:39:52;2.77;;;0.90;;
17854;SDS011;9053;53.358;6.382;2024-03-29T04:42:20;2.53;;;0.83;;
17854;SDS011;9053;53.358;6.382;2024-03-29T04:44:46;3.20;;;0.93;;
17854;SDS011;9053;53.358;6.382;2024-03-29T04:47:13;2.77;;;1.10;;
17854;SDS011;9053;53.358;6.382;2024-03-29T04:49:39;2.43;;;0.80;;
17854;SDS011;9053;53.358;6.382;2024-03-29T04:52:05;4.47;;;1.10;;
17854;SDS011;9053;53.358;6.382;2024-03-29T04:54:32;4.87;;;1.00;;
17854;SDS011;9053;53.358;6.382;2024-03-29T04:56:58;2.20;;;1.13;;
17854;SDS011;9053;53.358;6.382;2024-03-29T04:59:27;2.70;;;0.80;;
17854;SDS011;9053;53.358;6.382;2024-03-29T05:01:54;3.87;;;1.10;;
17854;SDS011;9053;53.358;6.382;2024-03-29T05:04:20;3.70;;;1.27;;
17854;SDS011;9053;53.358;6.382;2024-03-29T05:06:50;2.40;;;1.00;;
17854;SDS011;9053;53.358;6.382;2024-03-29T05:09:18;4.03;;;1.00;;
17854;SDS011;9053;53.358;6.382;2024-03-29T05:11:44;4.53;;;0.97;;
17854;SDS011;9053;53.358;6.382;2024-03-29T05:14:11;6.20;;;1.13;;
17854;SDS011;9053;53.358;6.382;2024-03-29T05:16:40;3.70;;;0.93;;
17854;SDS011;9053;53.358;6.382;2024-03-29T05:19:06;3.10;;;1.83;;
17854;SDS011;9053;53.358;6.382;2024-03-29T05:21:32;1.93;;;0.80;;
17854;SDS011;9053;53.358;6.382;2024-03-29T05:23:58;3.63;;;1.13;;
17854;SDS011;9053;53.358;6.382;2024-03-29T05:26:24;4.17;;;1.10;;
17854;SDS011;9053;53.358;6.382;2024-03-29T05:28:50;1.73;;;0.73;;
17854;SDS011;9053;53.358;6.382;2024-03-29T05:31:16;3.17;;;1.00;;
17854;SDS011;9053;53.358;6.382;2024-03-29T05:33:45;2.60;;;1.00;;
17854;SDS011;9053;53.358;6.382;2024-03-29T05:36:11;2.63;;;0.97;;
17854;SDS011;9053;53.358;6.382;2024-03-29T05:38:38;4.40;;;1.40;;
17854;SDS011;9053;53.358;6.382;2024-03-29T05:41:04;3.33;;;1.20;;
17854;SDS011;9053;53.358;6.382;2024-03-29T05:43:31;3.90;;;1.23;;
17854;SDS011;9053;53.358;6.382;2024-03-29T05:45:57;2.23;;;0.90;;
17854;SDS011;9053;53.358;6.382;2024-03-29T05:48:23;6.30;;;1.10;;
17854;SDS011;9053;53.358;6.382;2024-03-29T05:50:52;3.10;;;1.03;;
17854;SDS011;9053;53.358;6.382;2024-03-29T05:53:18;5.03;;;0.97;;
17854;SDS011;9053;53.358;6.382;2024-03-29T05:55:45;2.33;;;1.10;;
17854;SDS011;9053;53.358;6.382;2024-03-29T05:58:11;4.60;;;1.13;;
17854;SDS011;9053;53.358;6.382;2024-03-29T06:00:37;2.40;;;0.97;;
17854;SDS011;9053;53.358;6.382;2024-03-29T06:03:03;3.47;;;0.80;;
17854;SDS011;9053;53.358;6.382;2024-03-29T06:05:31;3.40;;;1.10;;
17854;SDS011;9053;53.358;6.382;2024-03-29T06:08:00;3.00;;;0.90;;
17854;SDS011;9053;53.358;6.382;2024-03-29T06:10:26;2.87;;;1.03;;
17854;SDS011;9053;53.358;6.382;2024-03-29T06:12:53;2.10;;;0.97;;
17854;SDS011;9053;53.358;6.382;2024-03-29T06:15:21;2.70;;;1.07;;
17854;SDS011;9053;53.358;6.382;2024-03-29T06:18:02;2.87;;;1.23;;
17854;SDS011;9053;53.358;6.382;2024-03-29T06:20:28;3.17;;;1.13;;
17854;SDS011;9053;53.358;6.382;2024-03-29T06:22:55;3.13;;;0.97;;
17854;SDS011;9053;53.358;6.382;2024-03-29T06:25:23;2.37;;;0.80;;
17854;SDS011;9053;53.358;6.382;2024-03-29T06:27:49;2.90;;;0.83;;
17854;SDS011;9053;53.358;6.382;2024-03-29T06:30:17;3.63;;;0.80;;
17854;SDS011;9053;53.358;6.382;2024-03-29T06:32:43;2.57;;;0.97;;
17854;SDS011;9053;53.358;6.382;2024-03-29T06:35:10;2.30;;;0.90;;
17854;SDS011;9053;53.358;6.382;2024-03-29T06:37:36;3.40;;;1.37;;
17854;SDS011;9053;53.358;6.382;2024-03-29T06:40:03;3.13;;;1.00;;
17854;SDS011;9053;53.358;6.382;2024-03-29T06:42:32;2.63;;;1.20;;
17854;SDS011;9053;53.358;6.382;2024-03-29T06:44:58;2.97;;;1.17;;
17854;SDS011;9053;53.358;6.382;2024-03-29T06:47:24;1.87;;;1.00;;
17854;SDS011;9053;53.358;6.382;2024-03-29T06:49:50;3.47;;;1.00;;
17854;SDS011;9053;53.358;6.382;2024-03-29T06:52:16;3.17;;;1.00;;
17854;SDS011;9053;53.358;6.382;2024-03-29T06:54:42;2.07;;;0.80;;
17854;SDS011;9053;53.358;6.382;2024-03-29T06:57:08;2.30;;;0.77;;
17854;SDS011;9053;53.358;6.382;2024-03-29T06:59:37;1.47;;;0.70;;
17854;SDS011;9053;53.358;6.382;2024-03-29T07:02:03;2.30;;;0.80;;
17854;SDS011;9053;53.358;6.382;2024-03-29T07:04:29;2.27;;;0.70;;
17854;SDS011;9053;53.358;6.382;2024-03-29T07:06:55;1.90;;;0.67;;
17854;SDS011;9053;53.358;6.382;2024-03-29T07:09:22;1.77;;;0.80;;
17854;SDS011;9053;53.358;6.382;2024-03-29T07:11:48;1.30;;;0.70;;
17854;SDS011;9053;53.358;6.382;2024-03-29T07:14:17;1.40;;;0.77;;
17854;SDS011;9053;53.358;6.382;2024-03-29T07:16:47;1.30;;;0.57;;
17854;SDS011;9053;53.358;6.382;2024-03-29T07:19:13;3.27;;;0.80;;
17854;SDS011;9053;53.358;6.382;2024-03-29T07:21:39;1.93;;;0.97;;
17854;SDS011;9053;53.358;6.382;2024-03-29T07:24:05;2.67;;;1.13;;
17854;SDS011;9053;53.358;6.382;2024-03-29T07:26:33;3.67;;;0.80;;
17854;SDS011;9053;53.358;6.382;2024-03-29T07:28:59;2.30;;;0.97;;
17854;SDS011;9053;53.358;6.382;2024-03-29T07:31:25;2.00;;;0.80;;
17854;SDS011;9053;53.358;6.382;2024-03-29T07:33:53;2.67;;;0.73;;
17854;SDS011;9053;53.358;6.382;2024-03-29T07:36:20;2.60;;;0.60;;
17854;SDS011;9053;53.358;6.382;2024-03-29T07:38:46;1.00;;;0.50;;
17854;SDS011;9053;53.358;6.382;2024-03-29T07:41:12;0.90;;;0.60;;
17854;SDS011;9053;53.358;6.382;2024-03-29T07:43:38;1.63;;;0.80;;
17854;SDS011;9053;53.358;6.382;2024-03-29T07:46:05;1.60;;;0.50;;
17854;SDS011;9053;53.358;6.382;2024-03-29T07:48:32;1.80;;;0.60;;
17854;SDS011;9053;53.358;6.382;2024-03-29T07:51:00;1.07;;;0.60;;
17854;SDS011;9053;53.358;6.382;2024-03-29T07:53:27;0.90;;;0.50;;
17854;SDS011;9053;53.358;6.382;2024-03-29T07:55:53;1.50;;;0.70;;
17854;SDS011;9053;53.358;6.382;2024-03-29T07:58:19;1.07;;;0.43;;
17854;SDS011;9053;53.358;6.382;2024-03-29T08:00:45;0.70;;;0.47;;
17854;SDS011;9053;53.358;6.382;2024-03-29T08:03:12;2.83;;;0.70;;
17854;SDS011;9053;53.358;6.382;2024-03-29T08:05:38;1.10;;;0.70;;
17854;SDS011;9053;53.358;6.382;2024-03-29T08:08:07;0.80;;;0.63;;
17854;SDS011;9053;53.358;6.382;2024-03-29T08:10:33;1.43;;;0.60;;
17854;SDS011;9053;53.358;6.382;2024-03-29T08:12:59;1.40;;;0.80;;
17854;SDS011;9053;53.358;6.382;2024-03-29T08:15:26;4.07;;;0.97;;
17854;SDS011;9053;53.358;6.382;2024-03-29T08:17:53;1.20;;;0.60;;
17854;SDS011;9053;53.358;6.382;2024-03-29T08:20:19;1.97;;;0.63;;
17854;SDS011;9053;53.358;6.382;2024-03-29T08:22:45;2.07;;;0.70;;
17854;SDS011;9053;53.358;6.382;2024-03-29T08:25:14;2.47;;;0.50;;
17854;SDS011;9053;53.358;6.382;2024-03-29T08:27:41;2.03;;;0.70;;
17854;SDS011;9053;53.358;6.382;2024-03-29T08:30:07;1.13;;;0.63;;
17854;SDS011;9053;53.358;6.382;2024-03-29T08:32:34;1.67;;;0.70;;
17854;SDS011;9053;53.358;6.382;2024-03-29T08:35:00;1.50;;;0.60;;
17854;SDS011;9053;53.358;6.382;2024-03-29T08:37:26;1.10;;;0.50;;
17854;SDS011;9053;53.358;6.382;2024-03-29T08:39:52;1.50;;;0.50;;
17854;SDS011;9053;53.358;6.382;2024-03-29T08:42:21;2.30;;;0.60;;
17854;SDS011;9053;53.358;6.382;2024-03-29T08:44:47;1.77;;;0.70;;
17854;SDS011;9053;53.358;6.382;2024-03-29T08:47:13;0.75;;;0.50;;
17854;SDS011;9053;53.358;6.382;2024-03-29T08:49:39;1.05;;;0.60;;
17854;SDS011;9053;53.358;6.382;2024-03-29T08:52:05;1.88;;;0.65;;
17854;SDS011;9053;53.358;6.382;2024-03-29T08:54:31;1.10;;;0.70;;
17854;SDS011;9053;53.358;6.382;2024-03-29T08:56:57;1.63;;;0.70;;
17854;SDS011;9053;53.358;6.382;2024-03-29T08:59:30;1.88;;;0.68;;
17854;SDS011;9053;53.358;6.382;2024-03-29T09:02:03;0.93;;;0.60;;
17854;SDS011;9053;53.358;6.382;2024-03-29T09:04:30;1.10;;;0.50;;
17854;SDS011;9053;53.358;6.382;2024-03-29T09:06:56;1.70;;;0.60;;
17854;SDS011;9053;53.358;6.382;2024-03-29T09:09:22;0.70;;;0.57;;
17854;SDS011;9053;53.358;6.382;2024-03-29T09:11:48;2.30;;;0.70;;
17854;SDS011;9053;53.358;6.382;2024-03-29T09:14:15;1.10;;;0.70;;
17854;SDS011;9053;53.358;6.382;2024-03-29T09:16:46;0.50;;;0.50;;
17854;SDS011;9053;53.358;6.382;2024-03-29T09:19:12;1.83;;;0.60;;
17854;SDS011;9053;53.358;6.382;2024-03-29T09:21:39;1.40;;;0.60;;
17854;SDS011;9053;53.358;6.382;2024-03-29T09:24:05;1.95;;;0.70;;
17854;SDS011;9053;53.358;6.382;2024-03-29T09:26:31;0.80;;;0.60;;
17854;SDS011;9053;53.358;6.382;2024-03-29T09:28:58;1.67;;;0.60;;
17854;SDS011;9053;53.358;6.382;2024-03-29T09:31:24;0.70;;;0.50;;
17854;SDS011;9053;53.358;6.382;2024-03-29T09:33:53;0.63;;;0.47;;
17854;SDS011;9053;53.358;6.382;2024-03-29T09:36:19;0.57;;;0.50;;
17854;SDS011;9053;53.358;6.382;2024-03-29T09:38:46;1.03;;;0.50;;
17854;SDS011;9053;53.358;6.382;2024-03-29T09:41:13;0.40;;;0.40;;
17854;SDS011;9053;53.358;6.382;2024-03-29T09:43:40;1.80;;;0.50;;
17854;SDS011;9053;53.358;6.382;2024-03-29T09:46:08;1.02;;;0.60;;
17854;SDS011;9053;53.358;6.382;2024-03-29T09:48:34;0.80;;;0.60;;
17854;SDS011;9053;53.358;6.382;2024-03-29T09:51:06;1.70;;;0.50;;
17854;SDS011;9053;53.358;6.382;2024-03-29T09:53:34;0.60;;;0.50;;
17854;SDS011;9053;53.358;6.382;2024-03-29T09:56:01;1.77;;;0.70;;
17854;SDS011;9053;53.358;6.382;2024-03-29T09:58:30;1.20;;;0.60;;
17854;SDS011;9053;53.358;6.382;2024-03-29T10:00:56;1.08;;;0.70;;
17854;SDS011;9053;53.358;6.382;2024-03-29T10:03:22;0.82;;;0.60;;
17854;SDS011;9053;53.358;6.382;2024-03-29T10:05:49;0.75;;;0.40;;
17854;SDS011;9053;53.358;6.382;2024-03-29T10:08:18;2.53;;;0.70;;
17854;SDS011;9053;53.358;6.382;2024-03-29T10:10:44;1.13;;;0.70;;
17854;SDS011;9053;53.358;6.382;2024-03-29T10:13:11;1.15;;;0.63;;
17854;SDS011;9053;53.358;6.382;2024-03-29T10:15:37;1.77;;;0.70;;
17854;SDS011;9053;53.358;6.382;2024-03-29T10:18:03;1.50;;;0.80;;
17854;SDS011;9053;53.358;6.382;2024-03-29T10:20:30;1.00;;;0.68;;
17854;SDS011;9053;53.358;6.382;2024-03-29T10:22:56;0.70;;;0.50;;
17854;SDS011;9053;53.358;6.382;2024-03-29T10:25:25;1.60;;;0.60;;
17854;SDS011;9053;53.358;6.382;2024-03-29T10:27:51;0.65;;;0.50;;
17854;SDS011;9053;53.358;6.382;2024-03-29T10:30:21;1.02;;;0.60;;
17854;SDS011;9053;53.358;6.382;2024-03-29T10:32:51;2.10;;;0.70;;
17854;SDS011;9053;53.358;6.382;2024-03-29T10:35:17;0.95;;;0.60;;
17854;SDS011;9053;53.358;6.382;2024-03-29T10:37:44;2.38;;;0.60;;
17854;SDS011;9053;53.358;6.382;2024-03-29T10:40:11;2.45;;;0.60;;
17854;SDS011;9053;53.358;6.382;2024-03-29T10:42:40;0.65;;;0.50;;
17854;SDS011;9053;53.358;6.382;2024-03-29T10:45:07;0.63;;;0.50;;
17854;SDS011;9053;53.358;6.382;2024-03-29T10:47:34;1.08;;;0.47;;
17854;SDS011;9053;53.358;6.382;2024-03-29T10:50:00;1.83;;;0.63;;
17854;SDS011;9053;53.358;6.382;2024-03-29T10:52:27;1.35;;;0.60;;
17854;SDS011;9053;53.358;6.382;2024-03-29T10:54:53;3.72;;;0.70;;
17854;SDS011;9053;53.358;6.382;2024-03-29T10:57:22;0.93;;;0.60;;
17854;SDS011;9053;53.358;6.382;2024-03-29T10:59:53;0.70;;;0.60;;
17854;SDS011;9053;53.358;6.382;2024-03-29T11:02:28;1.05;;;0.60;;
17854;SDS011;9053;53.358;6.382;2024-03-29T11:05:01;0.93;;;0.60;;
17854;SDS011;9053;53.358;6.382;2024-03-29T11:07:32;1.10;;;0.50;;
17854;SDS011;9053;53.358;6.382;2024-03-29T11:10:03;0.88;;;0.50;;
17854;SDS011;9053;53.358;6.382;2024-03-29T11:12:30;0.85;;;0.63;;
17854;SDS011;9053;53.358;6.382;2024-03-29T11:15:10;1.48;;;0.57;;
17854;SDS011;9053;53.358;6.382;2024-03-29T11:17:45;1.20;;;0.60;;
17854;SDS011;9053;53.358;6.382;2024-03-29T11:20:11;0.55;;;0.55;;
17854;SDS011;9053;53.358;6.382;2024-03-29T11:22:38;1.05;;;0.50;;
17854;SDS011;9053;53.358;6.382;2024-03-29T11:25:04;1.45;;;0.60;;
17854;SDS011;9053;53.358;6.382;2024-03-29T11:27:30;1.55;;;0.52;;
17854;SDS011;9053;53.358;6.382;2024-03-29T11:29:56;0.90;;;0.50;;
17854;SDS011;9053;53.358;6.382;2024-03-29T11:32:37;1.25;;;0.70;;
17854;SDS011;9053;53.358;6.382;2024-03-29T11:35:04;1.42;;;0.68;;
17854;SDS011;9053;53.358;6.382;2024-03-29T11:37:30;0.55;;;0.50;;
17854;SDS011;9053;53.358;6.382;2024-03-29T11:39:58;0.80;;;0.50;;
17854;SDS011;9053;53.358;6.382;2024-03-29T11:42:35;1.88;;;0.60;;
17854;SDS011;9053;53.358;6.382;2024-03-29T11:45:02;1.63;;;0.60;;
17854;SDS011;9053;53.358;6.382;2024-03-29T11:47:28;0.75;;;0.70;;
17854;SDS011;9053;53.358;6.382;2024-03-29T11:49:58;1.95;;;0.68;;
17854;SDS011;9053;53.358;6.382;2024-03-29T11:52:26;1.15;;;0.70;;
17854;SDS011;9053;53.358;6.382;2024-03-29T11:54:53;3.53;;;0.63;;
17854;SDS011;9053;53.358;6.382;2024-03-29T11:57:19;2.37;;;0.90;;
17854;SDS011;9053;53.358;6.382;2024-03-29T11:59:45;0.90;;;0.60;;
17854;SDS011;9053;53.358;6.382;2024-03-29T12:02:12;0.80;;;0.60;;
17854;SDS011;9053;53.358;6.382;2024-03-29T12:04:39;2.03;;;0.77;;
17854;SDS011;9053;53.358;6.382;2024-03-29T12:07:08;0.80;;;0.50;;
17854;SDS011;9053;53.358;6.382;2024-03-29T12:09:34;1.55;;;0.63;;
17854;SDS011;9053;53.358;6.382;2024-03-29T12:12:04;1.77;;;0.90;;
17854;SDS011;9053;53.358;6.382;2024-03-29T12:14:31;1.52;;;0.70;;
17854;SDS011;9053;53.358;6.382;2024-03-29T12:16:59;1.40;;;0.80;;
17854;SDS011;9053;53.358;6.382;2024-03-29T12:19:25;1.90;;;0.80;;
17854;SDS011;9053;53.358;6.382;2024-03-29T12:21:52;1.35;;;0.80;;
17854;SDS011;9053;53.358;6.382;2024-03-29T12:24:22;1.08;;;0.80;;
17854;SDS011;9053;53.358;6.382;2024-03-29T12:26:48;1.50;;;0.82;;
17854;SDS011;9053;53.358;6.382;2024-03-29T12:29:15;3.15;;;0.90;;
17854;SDS011;9053;53.358;6.382;2024-03-29T12:31:41;1.65;;;0.68;;
17854;SDS011;9053;53.358;6.382;2024-03-29T12:34:07;1.08;;;0.85;;
17854;SDS011;9053;53.358;6.382;2024-03-29T12:36:35;2.47;;;0.80;;
17854;SDS011;9053;53.358;6.382;2024-03-29T12:39:01;2.63;;;0.77;;
17854;SDS011;9053;53.358;6.382;2024-03-29T12:41:31;2.20;;;0.75;;
17854;SDS011;9053;53.358;6.382;2024-03-29T12:43:57;2.72;;;1.10;;
17854;SDS011;9053;53.358;6.382;2024-03-29T12:46:24;1.15;;;0.70;;
17854;SDS011;9053;53.358;6.382;2024-03-29T12:48:56;2.45;;;0.70;;
17854;SDS011;9053;53.358;6.382;2024-03-29T12:51:23;1.55;;;0.70;;
17854;SDS011;9053;53.358;6.382;2024-03-29T12:53:49;1.58;;;0.80;;
17854;SDS011;9053;53.358;6.382;2024-03-29T12:56:16;1.67;;;0.70;;
17854;SDS011;9053;53.358;6.382;2024-03-29T12:58:44;2.15;;;0.95;;
17854;SDS011;9053;53.358;6.382;2024-03-29T13:01:10;2.17;;;0.95;;
17854;SDS011;9053;53.358;6.382;2024-03-29T13:03:37;2.40;;;0.82;;
17854;SDS011;9053;53.358;6.382;2024-03-29T13:06:03;1.30;;;0.60;;
17854;SDS011;9053;53.358;6.382;2024-03-29T13:08:29;1.75;;;0.70;;
17854;SDS011;9053;53.358;6.382;2024-03-29T13:10:57;2.58;;;0.75;;
17854;SDS011;9053;53.358;6.382;2024-03-29T13:13:25;1.77;;;0.80;;
17854;SDS011;9053;53.358;6.382;2024-03-29T13:15:54;1.80;;;0.73;;
17854;SDS011;9053;53.358;6.382;2024-03-29T13:18:20;3.17;;;0.75;;
17854;SDS011;9053;53.358;6.382;2024-03-29T13:20:46;2.40;;;0.68;;
17854;SDS011;9053;53.358;6.382;2024-03-29T13:23:12;1.15;;;0.70;;
17854;SDS011;9053;53.358;6.382;2024-03-29T13:25:38;2.03;;;0.82;;
17854;SDS011;9053;53.358;6.382;2024-03-29T13:28:05;1.30;;;0.80;;
17854;SDS011;9053;53.358;6.382;2024-03-29T13:30:31;2.05;;;0.80;;
17854;SDS011;9053;53.358;6.382;2024-03-29T13:33:00;1.50;;;0.80;;
17854;SDS011;9053;53.358;6.382;2024-03-29T13:35:26;2.10;;;1.00;;
17854;SDS011;9053;53.358;6.382;2024-03-29T13:37:52;2.17;;;0.80;;
17854;SDS011;9053;53.358;6.382;2024-03-29T13:40:19;1.17;;;0.80;;
17854;SDS011;9053;53.358;6.382;2024-03-29T13:42:46;2.10;;;0.90;;
17854;SDS011;9053;53.358;6.382;2024-03-29T13:45:13;1.65;;;0.70;;
17854;SDS011;9053;53.358;6.382;2024-03-29T13:47:39;1.70;;;0.80;;
17854;SDS011;9053;53.358;6.382;2024-03-29T13:50:09;1.80;;;0.98;;
17854;SDS011;9053;53.358;6.382;2024-03-29T13:52:36;1.67;;;0.73;;
17854;SDS011;9053;53.358;6.382;2024-03-29T13:55:04;2.05;;;0.77;;
17854;SDS011;9053;53.358;6.382;2024-03-29T13:57:30;1.65;;;1.00;;
17854;SDS011;9053;53.358;6.382;2024-03-29T13:59:57;2.05;;;1.20;;
17854;SDS011;9053;53.358;6.382;2024-03-29T14:02:24;2.33;;;1.20;;
17854;SDS011;9053;53.358;6.382;2024-03-29T14:04:50;2.90;;;1.45;;
17854;SDS011;9053;53.358;6.382;2024-03-29T14:07:19;1.75;;;0.93;;
17854;SDS011;9053;53.358;6.382;2024-03-29T14:09:46;0.93;;;0.82;;
17854;SDS011;9053;53.358;6.382;2024-03-29T14:12:13;1.30;;;0.90;;
17854;SDS011;9053;53.358;6.382;2024-03-29T14:14:40;1.48;;;0.80;;
17854;SDS011;9053;53.358;6.382;2024-03-29T14:17:07;0.90;;;0.80;;
17854;SDS011;9053;53.358;6.382;2024-03-29T14:19:33;2.10;;;0.80;;
17854;SDS011;9053;53.358;6.382;2024-03-29T14:22:00;1.98;;;0.70;;
17854;SDS011;9053;53.358;6.382;2024-03-29T14:24:29;1.33;;;0.80;;
17854;SDS011;9053;53.358;6.382;2024-03-29T14:26:55;3.17;;;1.17;;
17854;SDS011;9053;53.358;6.382;2024-03-29T14:29:21;1.50;;;0.90;;
17854;SDS011;9053;53.358;6.382;2024-03-29T14:31:48;2.45;;;1.02;;
17854;SDS011;9053;53.358;6.382;2024-03-29T14:34:14;2.70;;;0.90;;
17854;SDS011;9053;53.358;6.382;2024-03-29T14:36:40;1.77;;;0.82;;
17854;SDS011;9053;53.358;6.382;2024-03-29T14:39:06;2.15;;;1.00;;
17854;SDS011;9053;53.358;6.382;2024-03-29T14:41:35;1.27;;;0.80;;
17854;SDS011;9053;53.358;6.382;2024-03-29T14:44:01;1.30;;;0.90;;
17854;SDS011;9053;53.358;6.382;2024-03-29T14:46:27;1.77;;;0.75;;
17854;SDS011;9053;53.358;6.382;2024-03-29T14:48:53;1.70;;;0.80;;
17854;SDS011;9053;53.358;6.382;2024-03-29T14:51:19;1.58;;;1.00;;
17854;SDS011;9053;53.358;6.382;2024-03-29T14:53:45;1.48;;;0.90;;
17854;SDS011;9053;53.358;6.382;2024-03-29T14:56:13;1.38;;;1.05;;
17854;SDS011;9053;53.358;6.382;2024-03-29T14:58:43;1.42;;;0.88;;